sensor_id;sensor_type;location;lat;lon;timestamp;temperature;humidity
22471;DHT22;11402;51.374;6.594;2022-12-07T00:00:41;6.20;99.90
22471;DHT22;11402;51.374;6.594;2022-12-07T00:03:07;6.20;99.90
22471;DHT22;11402;51.374;6.594;2022-12-07T00:05:32;6.10;99.90
22471;DHT22;11402;51.374;6.594;2022-12-07T00:07:57;6.10;99.90
22471;DHT22;11402;51.374;6.594;2022-12-07T00:10:23;6.20;99.90
22471;DHT22;11402;51.374;6.594;2022-12-07T00:12:48;6.10;99.90
22471;DHT22;11402;51.374;6.594;2022-12-07T00:15:15;6.10;99.90
22471;DHT22;11402;51.374;6.594;2022-12-07T00:17:40;6.00;99.90
22471;DHT22;11402;51.374;6.594;2022-12-07T00:20:06;6.00;99.90
22471;DHT22;11402;51.374;6.594;2022-12-07T00:22:32;6.00;99.90
22471;DHT22;11402;51.374;6.594;2022-12-07T00:24:57;6.00;99.90
22471;DHT22;11402;51.374;6.594;2022-12-07T00:27:23;6.10;99.90
22471;DHT22;11402;51.374;6.594;2022-12-07T00:29:48;6.00;99.90
22471;DHT22;11402;51.374;6.594;2022-12-07T00:32:13;6.00;99.90
22471;DHT22;11402;51.374;6.594;2022-12-07T00:34:39;5.90;99.90
22471;DHT22;11402;51.374;6.594;2022-12-07T00:37:04;5.80;99.90
22471;DHT22;11402;51.374;6.594;2022-12-07T00:39:30;5.80;99.90
22471;DHT22;11402;51.374;6.594;2022-12-07T00:41:55;5.80;99.90
22471;DHT22;11402;51.374;6.594;2022-12-07T00:44:21;5.80;99.90
22471;DHT22;11402;51.374;6.594;2022-12-07T00:46:46;5.80;99.90
22471;DHT22;11402;51.374;6.594;2022-12-07T00:49:12;5.90;99.90
22471;DHT22;11402;51.374;6.594;2022-12-07T00:51:37;6.00;99.90
22471;DHT22;11402;51.374;6.594;2022-12-07T00:54:03;6.10;99.90
22471;DHT22;11402;51.374;6.594;2022-12-07T00:56:29;6.00;99.90
22471;DHT22;11402;51.374;6.594;2022-12-07T00:58:55;6.00;99.90
22471;DHT22;11402;51.374;6.594;2022-12-07T01:01:21;5.80;99.90
22471;DHT22;11402;51.374;6.594;2022-12-07T01:03:47;5.80;99.90
22471;DHT22;11402;51.374;6.594;2022-12-07T01:06:16;5.80;99.90
22471;DHT22;11402;51.374;6.594;2022-12-07T01:08:42;5.80;99.90
22471;DHT22;11402;51.374;6.594;2022-12-07T01:11:09;5.80;99.90
22471;DHT22;11402;51.374;6.594;2022-12-07T01:13:35;6.00;99.90
22471;DHT22;11402;51.374;6.594;2022-12-07T01:16:01;6.00;99.90
22471;DHT22;11402;51.374;6.594;2022-12-07T01:18:27;6.00;99.90
22471;DHT22;11402;51.374;6.594;2022-12-07T01:21:06;6.00;99.90
22471;DHT22;11402;51.374;6.594;2022-12-07T01:23:32;6.10;99.90
22471;DHT22;11402;51.374;6.594;2022-12-07T01:25:58;6.10;99.90
22471;DHT22;11402;51.374;6.594;2022-12-07T01:28:24;6.10;99.90
22471;DHT22;11402;51.374;6.594;2022-12-07T01:30:59;5.90;99.90
22471;DHT22;11402;51.374;6.594;2022-12-07T01:33:26;5.80;99.90
22471;DHT22;11402;51.374;6.594;2022-12-07T01:35:51;5.70;99.90
22471;DHT22;11402;51.374;6.594;2022-12-07T01:38:17;5.70;99.90
22471;DHT22;11402;51.374;6.594;2022-12-07T01:40:42;5.60;99.90
22471;DHT22;11402;51.374;6.594;2022-12-07T01:43:26;5.60;99.90
22471;DHT22;11402;51.374;6.594;2022-12-07T01:45:52;5.50;99.90
22471;DHT22;11402;51.374;6.594;2022-12-07T01:48:19;5.40;99.90
22471;DHT22;11402;51.374;6.594;2022-12-07T01:50:47;5.50;99.90
22471;DHT22;11402;51.374;6.594;2022-12-07T01:53:13;5.60;99.90
22471;DHT22;11402;51.374;6.594;2022-12-07T01:55:40;5.50;99.90
22471;DHT22;11402;51.374;6.594;2022-12-07T01:58:06;5.60;99.90
22471;DHT22;11402;51.374;6.594;2022-12-07T02:00:32;5.50;99.90
22471;DHT22;11402;51.374;6.594;2022-12-07T02:05:26;5.40;99.90
22471;DHT22;11402;51.374;6.594;2022-12-07T02:07:53;5.40;99.90
22471;DHT22;11402;51.374;6.594;2022-12-07T02:10:21;5.50;99.90
22471;DHT22;11402;51.374;6.594;2022-12-07T02:12:48;5.60;99.90
22471;DHT22;11402;51.374;6.594;2022-12-07T02:15:15;5.60;99.90
22471;DHT22;11402;51.374;6.594;2022-12-07T02:17:44;5.60;99.90
22471;DHT22;11402;51.374;6.594;2022-12-07T02:20:21;5.60;99.90
22471;DHT22;11402;51.374;6.594;2022-12-07T02:23:16;5.70;99.90
22471;DHT22;11402;51.374;6.594;2022-12-07T02:28:19;5.40;99.90
22471;DHT22;11402;51.374;6.594;2022-12-07T02:30:46;5.60;99.90
22471;DHT22;11402;51.374;6.594;2022-12-07T02:33:46;5.50;99.90
22471;DHT22;11402;51.374;6.594;2022-12-07T02:36:05;5.60;99.90
22471;DHT22;11402;51.374;6.594;2022-12-07T02:38:37;5.40;99.90
22471;DHT22;11402;51.374;6.594;2022-12-07T02:41:04;5.40;99.90
22471;DHT22;11402;51.374;6.594;2022-12-07T02:43:34;5.50;99.90
22471;DHT22;11402;51.374;6.594;2022-12-07T02:46:10;5.60;99.90
22471;DHT22;11402;51.374;6.594;2022-12-07T02:48:37;5.50;99.90
22471;DHT22;11402;51.374;6.594;2022-12-07T02:51:04;5.60;99.90
22471;DHT22;11402;51.374;6.594;2022-12-07T02:53:30;5.50;99.90
22471;DHT22;11402;51.374;6.594;2022-12-07T02:55:56;5.50;99.90
22471;DHT22;11402;51.374;6.594;2022-12-07T03:00:52;5.20;99.90
22471;DHT22;11402;51.374;6.594;2022-12-07T03:03:19;5.20;99.90
22471;DHT22;11402;51.374;6.594;2022-12-07T03:08:23;5.10;99.90
22471;DHT22;11402;51.374;6.594;2022-12-07T03:13:28;5.20;99.90
22471;DHT22;11402;51.374;6.594;2022-12-07T03:18:21;5.00;99.90
22471;DHT22;11402;51.374;6.594;2022-12-07T03:20:48;5.10;99.90
22471;DHT22;11402;51.374;6.594;2022-12-07T03:23:16;5.10;99.90
22471;DHT22;11402;51.374;6.594;2022-12-07T03:25:44;5.10;99.90
22471;DHT22;11402;51.374;6.594;2022-12-07T03:28:11;5.10;99.90
22471;DHT22;11402;51.374;6.594;2022-12-07T03:30:41;5.10;99.90
22471;DHT22;11402;51.374;6.594;2022-12-07T03:33:12;5.00;99.90
22471;DHT22;11402;51.374;6.594;2022-12-07T03:35:45;4.90;99.90
22471;DHT22;11402;51.374;6.594;2022-12-07T03:38:17;4.80;99.90
22471;DHT22;11402;51.374;6.594;2022-12-07T03:43:10;4.80;99.90
22471;DHT22;11402;51.374;6.594;2022-12-07T03:45:50;5.00;99.90
22471;DHT22;11402;51.374;6.594;2022-12-07T03:48:37;4.80;99.90
22471;DHT22;11402;51.374;6.594;2022-12-07T03:53:44;4.80;99.90
22471;DHT22;11402;51.374;6.594;2022-12-07T03:56:11;4.90;99.90
22471;DHT22;11402;51.374;6.594;2022-12-07T03:58:37;5.00;99.90
22471;DHT22;11402;51.374;6.594;2022-12-07T04:01:03;4.90;99.90
22471;DHT22;11402;51.374;6.594;2022-12-07T04:03:29;4.90;99.90
22471;DHT22;11402;51.374;6.594;2022-12-07T04:05:54;5.00;99.90
22471;DHT22;11402;51.374;6.594;2022-12-07T04:08:20;5.00;99.90
22471;DHT22;11402;51.374;6.594;2022-12-07T04:10:45;5.00;99.90
22471;DHT22;11402;51.374;6.594;2022-12-07T04:13:11;4.80;99.90
22471;DHT22;11402;51.374;6.594;2022-12-07T04:15:36;4.60;99.90
22471;DHT22;11402;51.374;6.594;2022-12-07T04:18:01;4.80;99.90
22471;DHT22;11402;51.374;6.594;2022-12-07T04:20:27;4.80;99.90
22471;DHT22;11402;51.374;6.594;2022-12-07T04:22:52;4.80;99.90
22471;DHT22;11402;51.374;6.594;2022-12-07T04:25:18;4.60;99.90
22471;DHT22;11402;51.374;6.594;2022-12-07T04:27:43;4.80;99.90
22471;DHT22;11402;51.374;6.594;2022-12-07T04:30:09;4.70;99.90
22471;DHT22;11402;51.374;6.594;2022-12-07T04:32:35;4.70;99.90
22471;DHT22;11402;51.374;6.594;2022-12-07T04:35:00;4.90;99.90
22471;DHT22;11402;51.374;6.594;2022-12-07T04:37:25;5.00;99.90
22471;DHT22;11402;51.374;6.594;2022-12-07T04:39:51;5.10;99.90
22471;DHT22;11402;51.374;6.594;2022-12-07T04:42:16;4.90;99.90
22471;DHT22;11402;51.374;6.594;2022-12-07T04:44:42;4.60;99.90
22471;DHT22;11402;51.374;6.594;2022-12-07T04:47:07;4.50;99.90
22471;DHT22;11402;51.374;6.594;2022-12-07T04:49:33;4.60;99.90
22471;DHT22;11402;51.374;6.594;2022-12-07T04:51:58;4.60;99.90
22471;DHT22;11402;51.374;6.594;2022-12-07T04:54:24;4.60;99.90
22471;DHT22;11402;51.374;6.594;2022-12-07T04:56:49;4.50;99.90
22471;DHT22;11402;51.374;6.594;2022-12-07T04:59:15;4.40;99.90
22471;DHT22;11402;51.374;6.594;2022-12-07T05:01:41;4.50;99.90
22471;DHT22;11402;51.374;6.594;2022-12-07T05:04:07;4.40;99.90
22471;DHT22;11402;51.374;6.594;2022-12-07T05:06:33;4.40;99.90
22471;DHT22;11402;51.374;6.594;2022-12-07T05:08:58;4.50;99.90
22471;DHT22;11402;51.374;6.594;2022-12-07T05:11:24;4.50;99.90
22471;DHT22;11402;51.374;6.594;2022-12-07T05:14:18;4.60;99.90
22471;DHT22;11402;51.374;6.594;2022-12-07T05:16:44;4.60;99.90
22471;DHT22;11402;51.374;6.594;2022-12-07T05:19:10;4.60;99.90
22471;DHT22;11402;51.374;6.594;2022-12-07T05:21:36;4.70;99.90
22471;DHT22;11402;51.374;6.594;2022-12-07T05:24:04;4.80;99.90
22471;DHT22;11402;51.374;6.594;2022-12-07T05:26:29;4.80;99.90
22471;DHT22;11402;51.374;6.594;2022-12-07T05:28:58;4.90;99.90
22471;DHT22;11402;51.374;6.594;2022-12-07T05:31:23;4.90;99.90
22471;DHT22;11402;51.374;6.594;2022-12-07T05:33:49;4.90;99.90
22471;DHT22;11402;51.374;6.594;2022-12-07T05:36:15;4.70;99.90
22471;DHT22;11402;51.374;6.594;2022-12-07T05:38:40;4.70;99.90
22471;DHT22;11402;51.374;6.594;2022-12-07T05:41:06;4.70;99.90
22471;DHT22;11402;51.374;6.594;2022-12-07T05:43:32;4.80;99.90
22471;DHT22;11402;51.374;6.594;2022-12-07T05:45:58;4.90;99.90
22471;DHT22;11402;51.374;6.594;2022-12-07T05:48:24;5.00;99.90
22471;DHT22;11402;51.374;6.594;2022-12-07T05:50:50;5.00;99.90
22471;DHT22;11402;51.374;6.594;2022-12-07T05:53:16;4.90;99.90
22471;DHT22;11402;51.374;6.594;2022-12-07T05:55:41;5.00;99.90
22471;DHT22;11402;51.374;6.594;2022-12-07T05:58:07;5.10;99.90
22471;DHT22;11402;51.374;6.594;2022-12-07T06:00:51;4.90;99.90
22471;DHT22;11402;51.374;6.594;2022-12-07T06:03:16;4.90;99.90
22471;DHT22;11402;51.374;6.594;2022-12-07T06:05:42;5.00;99.90
22471;DHT22;11402;51.374;6.594;2022-12-07T06:08:07;4.80;99.90
22471;DHT22;11402;51.374;6.594;2022-12-07T06:10:33;4.90;99.90
22471;DHT22;11402;51.374;6.594;2022-12-07T06:12:58;4.90;99.90
22471;DHT22;11402;51.374;6.594;2022-12-07T06:15:24;4.90;99.90
22471;DHT22;11402;51.374;6.594;2022-12-07T06:17:49;4.80;99.90
22471;DHT22;11402;51.374;6.594;2022-12-07T06:20:15;4.90;99.90
22471;DHT22;11402;51.374;6.594;2022-12-07T06:22:40;5.00;99.90
22471;DHT22;11402;51.374;6.594;2022-12-07T06:25:06;5.10;99.90
22471;DHT22;11402;51.374;6.594;2022-12-07T06:27:32;5.20;99.90
22471;DHT22;11402;51.374;6.594;2022-12-07T06:29:58;5.10;99.90
22471;DHT22;11402;51.374;6.594;2022-12-07T06:32:24;5.10;99.90
22471;DHT22;11402;51.374;6.594;2022-12-07T06:34:49;5.20;99.90
22471;DHT22;11402;51.374;6.594;2022-12-07T06:37:14;5.30;99.90
22471;DHT22;11402;51.374;6.594;2022-12-07T06:39:40;5.20;99.90
22471;DHT22;11402;51.374;6.594;2022-12-07T06:42:05;5.10;99.90
22471;DHT22;11402;51.374;6.594;2022-12-07T06:44:31;5.20;99.90
22471;DHT22;11402;51.374;6.594;2022-12-07T06:46:56;5.10;99.90
22471;DHT22;11402;51.374;6.594;2022-12-07T06:49:22;5.00;99.90
22471;DHT22;11402;51.374;6.594;2022-12-07T06:51:47;5.10;99.90
22471;DHT22;11402;51.374;6.594;2022-12-07T06:54:13;5.00;99.90
22471;DHT22;11402;51.374;6.594;2022-12-07T06:56:39;4.90;99.90
22471;DHT22;11402;51.374;6.594;2022-12-07T06:59:05;5.00;99.90
22471;DHT22;11402;51.374;6.594;2022-12-07T07:01:31;5.10;99.90
22471;DHT22;11402;51.374;6.594;2022-12-07T07:03:57;4.90;99.90
22471;DHT22;11402;51.374;6.594;2022-12-07T07:06:23;5.10;99.90
22471;DHT22;11402;51.374;6.594;2022-12-07T07:08:48;5.10;99.90
22471;DHT22;11402;51.374;6.594;2022-12-07T07:11:13;5.00;99.90
22471;DHT22;11402;51.374;6.594;2022-12-07T07:13:39;4.90;99.90
22471;DHT22;11402;51.374;6.594;2022-12-07T07:16:05;5.00;99.90
22471;DHT22;11402;51.374;6.594;2022-12-07T07:18:30;4.90;99.90
22471;DHT22;11402;51.374;6.594;2022-12-07T07:20:56;4.90;99.90
22471;DHT22;11402;51.374;6.594;2022-12-07T07:23:22;4.80;99.90
22471;DHT22;11402;51.374;6.594;2022-12-07T07:25:49;4.80;99.90
22471;DHT22;11402;51.374;6.594;2022-12-07T07:28:15;4.70;99.90
22471;DHT22;11402;51.374;6.594;2022-12-07T07:30:41;4.60;99.90
22471;DHT22;11402;51.374;6.594;2022-12-07T07:33:07;4.50;99.90
22471;DHT22;11402;51.374;6.594;2022-12-07T07:35:33;4.50;99.90
22471;DHT22;11402;51.374;6.594;2022-12-07T07:37:59;4.50;99.90
22471;DHT22;11402;51.374;6.594;2022-12-07T07:40:25;4.40;99.90
22471;DHT22;11402;51.374;6.594;2022-12-07T07:42:51;4.40;99.90
22471;DHT22;11402;51.374;6.594;2022-12-07T07:45:17;4.30;99.90
22471;DHT22;11402;51.374;6.594;2022-12-07T07:47:43;4.40;99.90
22471;DHT22;11402;51.374;6.594;2022-12-07T07:50:09;4.40;99.90
22471;DHT22;11402;51.374;6.594;2022-12-07T07:52:34;4.40;99.90
22471;DHT22;11402;51.374;6.594;2022-12-07T07:55:00;4.30;99.90
22471;DHT22;11402;51.374;6.594;2022-12-07T07:57:25;4.30;99.90
22471;DHT22;11402;51.374;6.594;2022-12-07T07:59:51;4.30;99.90
22471;DHT22;11402;51.374;6.594;2022-12-07T08:02:17;4.30;99.90
22471;DHT22;11402;51.374;6.594;2022-12-07T08:04:43;4.40;99.90
22471;DHT22;11402;51.374;6.594;2022-12-07T08:07:09;4.40;99.90
22471;DHT22;11402;51.374;6.594;2022-12-07T08:09:35;4.40;99.90
22471;DHT22;11402;51.374;6.594;2022-12-07T08:12:00;4.40;99.90
22471;DHT22;11402;51.374;6.594;2022-12-07T08:14:26;4.60;99.90
22471;DHT22;11402;51.374;6.594;2022-12-07T08:16:54;4.50;99.90
22471;DHT22;11402;51.374;6.594;2022-12-07T08:19:19;4.40;99.90
22471;DHT22;11402;51.374;6.594;2022-12-07T08:21:45;4.40;99.90
22471;DHT22;11402;51.374;6.594;2022-12-07T08:24:10;4.40;99.90
22471;DHT22;11402;51.374;6.594;2022-12-07T08:26:36;4.50;99.90
22471;DHT22;11402;51.374;6.594;2022-12-07T08:29:01;4.60;99.90
22471;DHT22;11402;51.374;6.594;2022-12-07T08:31:27;4.60;99.90
22471;DHT22;11402;51.374;6.594;2022-12-07T08:33:53;4.60;99.90
22471;DHT22;11402;51.374;6.594;2022-12-07T08:36:18;4.70;99.90
22471;DHT22;11402;51.374;6.594;2022-12-07T08:38:44;4.80;99.90
22471;DHT22;11402;51.374;6.594;2022-12-07T08:41:09;4.90;99.90
22471;DHT22;11402;51.374;6.594;2022-12-07T08:43:35;4.90;99.90
22471;DHT22;11402;51.374;6.594;2022-12-07T08:46:06;4.90;99.90
22471;DHT22;11402;51.374;6.594;2022-12-07T08:48:34;5.10;99.90
22471;DHT22;11402;51.374;6.594;2022-12-07T08:51:01;5.00;99.90
22471;DHT22;11402;51.374;6.594;2022-12-07T08:53:27;5.10;99.90
22471;DHT22;11402;51.374;6.594;2022-12-07T08:55:52;5.20;99.90
22471;DHT22;11402;51.374;6.594;2022-12-07T08:58:18;5.20;99.90
22471;DHT22;11402;51.374;6.594;2022-12-07T09:00:43;5.10;99.90
22471;DHT22;11402;51.374;6.594;2022-12-07T09:03:09;5.00;99.90
22471;DHT22;11402;51.374;6.594;2022-12-07T09:05:34;4.90;99.90
22471;DHT22;11402;51.374;6.594;2022-12-07T09:08:00;4.90;99.90
22471;DHT22;11402;51.374;6.594;2022-12-07T09:10:26;5.00;99.90
22471;DHT22;11402;51.374;6.594;2022-12-07T09:12:52;5.00;99.90
22471;DHT22;11402;51.374;6.594;2022-12-07T09:15:17;5.00;99.90
22471;DHT22;11402;51.374;6.594;2022-12-07T09:17:43;5.10;99.90
22471;DHT22;11402;51.374;6.594;2022-12-07T09:20:08;5.20;99.90
22471;DHT22;11402;51.374;6.594;2022-12-07T09:22:34;5.20;99.90
22471;DHT22;11402;51.374;6.594;2022-12-07T09:25:00;5.40;99.90
22471;DHT22;11402;51.374;6.594;2022-12-07T09:27:26;5.30;99.90
22471;DHT22;11402;51.374;6.594;2022-12-07T09:29:51;5.40;99.90
22471;DHT22;11402;51.374;6.594;2022-12-07T09:32:17;5.40;99.90
22471;DHT22;11402;51.374;6.594;2022-12-07T09:34:42;5.50;99.90
22471;DHT22;11402;51.374;6.594;2022-12-07T09:37:08;5.40;99.90
22471;DHT22;11402;51.374;6.594;2022-12-07T09:39:33;5.30;99.90
22471;DHT22;11402;51.374;6.594;2022-12-07T09:41:59;5.30;99.90
22471;DHT22;11402;51.374;6.594;2022-12-07T09:44:25;5.30;99.90
22471;DHT22;11402;51.374;6.594;2022-12-07T09:46:51;5.30;99.90
22471;DHT22;11402;51.374;6.594;2022-12-07T09:49:21;5.30;99.90
22471;DHT22;11402;51.374;6.594;2022-12-07T09:51:47;5.20;99.90
22471;DHT22;11402;51.374;6.594;2022-12-07T09:54:22;5.20;99.90
22471;DHT22;11402;51.374;6.594;2022-12-07T09:56:48;5.30;99.90
22471;DHT22;11402;51.374;6.594;2022-12-07T09:59:15;5.40;99.90
22471;DHT22;11402;51.374;6.594;2022-12-07T10:01:42;5.50;99.90
22471;DHT22;11402;51.374;6.594;2022-12-07T10:04:15;5.40;99.90
22471;DHT22;11402;51.374;6.594;2022-12-07T10:06:42;5.40;99.90
22471;DHT22;11402;51.374;6.594;2022-12-07T10:09:14;5.50;99.90
22471;DHT22;11402;51.374;6.594;2022-12-07T10:14:24;5.60;99.90
22471;DHT22;11402;51.374;6.594;2022-12-07T10:16:52;5.70;99.90
22471;DHT22;11402;51.374;6.594;2022-12-07T10:21:46;5.70;99.90
22471;DHT22;11402;51.374;6.594;2022-12-07T10:24:23;5.70;99.90
22471;DHT22;11402;51.374;6.594;2022-12-07T10:26:52;5.80;99.90
22471;DHT22;11402;51.374;6.594;2022-12-07T10:32:06;5.90;99.90
22471;DHT22;11402;51.374;6.594;2022-12-07T10:34:37;5.90;99.90
22471;DHT22;11402;51.374;6.594;2022-12-07T10:39:44;5.80;99.90
22471;DHT22;11402;51.374;6.594;2022-12-07T10:44:41;6.00;99.90
22471;DHT22;11402;51.374;6.594;2022-12-07T10:57:47;5.90;99.90
22471;DHT22;11402;51.374;6.594;2022-12-07T11:00:23;6.00;99.90
22471;DHT22;11402;51.374;6.594;2022-12-07T11:05:29;6.00;99.90
22471;DHT22;11402;51.374;6.594;2022-12-07T11:13:16;6.30;99.90
22471;DHT22;11402;51.374;6.594;2022-12-07T11:20:44;6.50;99.90
22471;DHT22;11402;51.374;6.594;2022-12-07T11:23:21;6.50;99.90
22471;DHT22;11402;51.374;6.594;2022-12-07T11:28:37;6.60;99.90
22471;DHT22;11402;51.374;6.594;2022-12-07T11:31:12;6.60;99.90
22471;DHT22;11402;51.374;6.594;2022-12-07T11:33:46;6.60;99.90
22471;DHT22;11402;51.374;6.594;2022-12-07T11:36:32;6.50;99.90
22471;DHT22;11402;51.374;6.594;2022-12-07T11:39:04;6.50;99.90
22471;DHT22;11402;51.374;6.594;2022-12-07T11:41:31;6.60;99.90
22471;DHT22;11402;51.374;6.594;2022-12-07T11:46:40;6.70;99.90
22471;DHT22;11402;51.374;6.594;2022-12-07T11:51:59;6.70;99.90
22471;DHT22;11402;51.374;6.594;2022-12-07T11:54:28;6.90;99.90
22471;DHT22;11402;51.374;6.594;2022-12-07T11:56:56;6.90;99.90
22471;DHT22;11402;51.374;6.594;2022-12-07T12:02:07;6.90;99.90
22471;DHT22;11402;51.374;6.594;2022-12-07T12:07:06;6.90;99.90
22471;DHT22;11402;51.374;6.594;2022-12-07T12:09:35;6.80;99.90
22471;DHT22;11402;51.374;6.594;2022-12-07T12:17:12;6.90;99.90
22471;DHT22;11402;51.374;6.594;2022-12-07T12:19:43;6.80;99.90
22471;DHT22;11402;51.374;6.594;2022-12-07T12:22:19;6.90;99.90
22471;DHT22;11402;51.374;6.594;2022-12-07T12:24:47;6.90;99.90
22471;DHT22;11402;51.374;6.594;2022-12-07T12:27:25;6.70;99.90
22471;DHT22;11402;51.374;6.594;2022-12-07T12:29:52;6.70;99.90
22471;DHT22;11402;51.374;6.594;2022-12-07T12:32:20;6.80;99.90
22471;DHT22;11402;51.374;6.594;2022-12-07T12:37:36;6.90;99.90
22471;DHT22;11402;51.374;6.594;2022-12-07T12:42:51;6.80;99.90
22471;DHT22;11402;51.374;6.594;2022-12-07T12:47:43;6.80;99.90
22471;DHT22;11402;51.374;6.594;2022-12-07T12:50:20;6.90;99.90
22471;DHT22;11402;51.374;6.594;2022-12-07T12:52:50;6.80;99.90
22471;DHT22;11402;51.374;6.594;2022-12-07T12:55:18;6.90;99.90
22471;DHT22;11402;51.374;6.594;2022-12-07T12:57:46;6.90;99.90
22471;DHT22;11402;51.374;6.594;2022-12-07T13:02:56;7.00;99.90
22471;DHT22;11402;51.374;6.594;2022-12-07T13:05:25;7.00;99.90
22471;DHT22;11402;51.374;6.594;2022-12-07T13:07:54;7.00;99.90
22471;DHT22;11402;51.374;6.594;2022-12-07T13:12:55;6.80;99.90
22471;DHT22;11402;51.374;6.594;2022-12-07T13:15:33;7.00;99.90
22471;DHT22;11402;51.374;6.594;2022-12-07T13:18:00;6.90;99.90
22471;DHT22;11402;51.374;6.594;2022-12-07T13:20:45;7.00;99.90
22471;DHT22;11402;51.374;6.594;2022-12-07T13:23:12;7.00;99.90
22471;DHT22;11402;51.374;6.594;2022-12-07T13:25:41;7.10;99.90
22471;DHT22;11402;51.374;6.594;2022-12-07T13:28:14;7.10;99.90
22471;DHT22;11402;51.374;6.594;2022-12-07T13:30:43;7.00;99.90
22471;DHT22;11402;51.374;6.594;2022-12-07T13:33:10;6.90;99.90
22471;DHT22;11402;51.374;6.594;2022-12-07T13:35:36;6.90;99.90
22471;DHT22;11402;51.374;6.594;2022-12-07T13:38:27;7.00;99.90
22471;DHT22;11402;51.374;6.594;2022-12-07T13:43:42;7.10;99.90
22471;DHT22;11402;51.374;6.594;2022-12-07T13:46:08;7.20;99.90
22471;DHT22;11402;51.374;6.594;2022-12-07T13:48:46;7.00;99.90
22471;DHT22;11402;51.374;6.594;2022-12-07T13:51:22;7.00;99.90
22471;DHT22;11402;51.374;6.594;2022-12-07T13:53:52;7.10;99.90
22471;DHT22;11402;51.374;6.594;2022-12-07T13:56:18;7.10;99.90
22471;DHT22;11402;51.374;6.594;2022-12-07T13:58:45;7.00;99.90
22471;DHT22;11402;51.374;6.594;2022-12-07T14:01:11;7.00;99.90
22471;DHT22;11402;51.374;6.594;2022-12-07T14:03:38;7.00;99.90
22471;DHT22;11402;51.374;6.594;2022-12-07T14:06:06;7.10;99.90
22471;DHT22;11402;51.374;6.594;2022-12-07T14:08:31;7.10;99.90
22471;DHT22;11402;51.374;6.594;2022-12-07T14:10:57;7.10;99.90
22471;DHT22;11402;51.374;6.594;2022-12-07T14:15:54;7.10;99.90
22471;DHT22;11402;51.374;6.594;2022-12-07T14:18:28;7.10;99.90
22471;DHT22;11402;51.374;6.594;2022-12-07T14:21:04;6.90;99.90
22471;DHT22;11402;51.374;6.594;2022-12-07T14:23:29;6.90;99.90
22471;DHT22;11402;51.374;6.594;2022-12-07T14:26:04;7.00;99.90
22471;DHT22;11402;51.374;6.594;2022-12-07T14:28:31;6.90;99.90
22471;DHT22;11402;51.374;6.594;2022-12-07T14:30:57;6.80;99.90
22471;DHT22;11402;51.374;6.594;2022-12-07T14:33:22;6.70;99.90
22471;DHT22;11402;51.374;6.594;2022-12-07T14:35:49;6.80;99.90
22471;DHT22;11402;51.374;6.594;2022-12-07T14:38:14;6.60;99.90
22471;DHT22;11402;51.374;6.594;2022-12-07T14:40:40;6.60;99.90
22471;DHT22;11402;51.374;6.594;2022-12-07T14:43:08;6.50;99.90
22471;DHT22;11402;51.374;6.594;2022-12-07T14:45:35;6.50;99.90
22471;DHT22;11402;51.374;6.594;2022-12-07T14:48:00;6.60;99.90
22471;DHT22;11402;51.374;6.594;2022-12-07T14:50:25;6.50;99.90
22471;DHT22;11402;51.374;6.594;2022-12-07T14:52:55;6.50;99.90
22471;DHT22;11402;51.374;6.594;2022-12-07T14:55:28;6.40;99.90
22471;DHT22;11402;51.374;6.594;2022-12-07T14:57:53;6.40;99.90
22471;DHT22;11402;51.374;6.594;2022-12-07T15:00:19;6.60;99.90
22471;DHT22;11402;51.374;6.594;2022-12-07T15:02:45;6.40;99.90
22471;DHT22;11402;51.374;6.594;2022-12-07T15:05:11;6.40;99.90
22471;DHT22;11402;51.374;6.594;2022-12-07T15:07:37;6.40;99.90
22471;DHT22;11402;51.374;6.594;2022-12-07T15:10:02;6.50;99.90
22471;DHT22;11402;51.374;6.594;2022-12-07T15:12:28;6.40;99.90
22471;DHT22;11402;51.374;6.594;2022-12-07T15:14:53;6.30;99.90
22471;DHT22;11402;51.374;6.594;2022-12-07T15:17:19;6.40;99.90
22471;DHT22;11402;51.374;6.594;2022-12-07T15:19:44;6.40;99.90
22471;DHT22;11402;51.374;6.594;2022-12-07T15:22:10;6.30;99.90
22471;DHT22;11402;51.374;6.594;2022-12-07T15:24:36;6.20;99.90
22471;DHT22;11402;51.374;6.594;2022-12-07T15:27:02;6.20;99.90
22471;DHT22;11402;51.374;6.594;2022-12-07T15:29:27;6.30;99.90
22471;DHT22;11402;51.374;6.594;2022-12-07T15:31:53;6.40;99.90
22471;DHT22;11402;51.374;6.594;2022-12-07T15:34:18;6.30;99.90
22471;DHT22;11402;51.374;6.594;2022-12-07T15:36:44;6.40;99.90
22471;DHT22;11402;51.374;6.594;2022-12-07T15:39:10;6.50;99.90
22471;DHT22;11402;51.374;6.594;2022-12-07T15:41:35;6.50;99.90
22471;DHT22;11402;51.374;6.594;2022-12-07T15:44:01;6.50;99.90
22471;DHT22;11402;51.374;6.594;2022-12-07T15:46:45;6.50;99.90
22471;DHT22;11402;51.374;6.594;2022-12-07T15:49:11;6.40;99.90
22471;DHT22;11402;51.374;6.594;2022-12-07T15:51:37;6.50;99.90
22471;DHT22;11402;51.374;6.594;2022-12-07T15:54:02;6.40;99.90
22471;DHT22;11402;51.374;6.594;2022-12-07T15:56:28;6.40;99.90
22471;DHT22;11402;51.374;6.594;2022-12-07T15:58:53;6.60;99.90
22471;DHT22;11402;51.374;6.594;2022-12-07T16:01:19;6.60;99.90
22471;DHT22;11402;51.374;6.594;2022-12-07T16:03:45;6.50;99.90
22471;DHT22;11402;51.374;6.594;2022-12-07T16:06:11;6.40;99.90
22471;DHT22;11402;51.374;6.594;2022-12-07T16:08:36;6.40;99.90
22471;DHT22;11402;51.374;6.594;2022-12-07T16:11:05;6.50;99.90
22471;DHT22;11402;51.374;6.594;2022-12-07T16:13:31;6.40;99.90
22471;DHT22;11402;51.374;6.594;2022-12-07T16:15:57;6.50;99.90
22471;DHT22;11402;51.374;6.594;2022-12-07T16:18:22;6.50;99.90
22471;DHT22;11402;51.374;6.594;2022-12-07T16:20:48;6.40;99.90
22471;DHT22;11402;51.374;6.594;2022-12-07T16:23:14;6.50;99.90
22471;DHT22;11402;51.374;6.594;2022-12-07T16:25:39;6.50;99.90
22471;DHT22;11402;51.374;6.594;2022-12-07T16:28:06;6.40;99.90
22471;DHT22;11402;51.374;6.594;2022-12-07T16:30:31;6.50;99.90
22471;DHT22;11402;51.374;6.594;2022-12-07T16:32:57;6.60;99.90
22471;DHT22;11402;51.374;6.594;2022-12-07T16:35:22;6.60;99.90
22471;DHT22;11402;51.374;6.594;2022-12-07T16:37:48;6.60;99.90
22471;DHT22;11402;51.374;6.594;2022-12-07T16:40:13;6.50;99.90
22471;DHT22;11402;51.374;6.594;2022-12-07T16:42:39;6.50;99.90
22471;DHT22;11402;51.374;6.594;2022-12-07T16:45:04;6.40;99.90
22471;DHT22;11402;51.374;6.594;2022-12-07T16:47:30;6.50;99.90
22471;DHT22;11402;51.374;6.594;2022-12-07T16:49:56;6.50;99.90
22471;DHT22;11402;51.374;6.594;2022-12-07T16:52:21;6.40;99.90
22471;DHT22;11402;51.374;6.594;2022-12-07T16:54:47;6.50;99.90
22471;DHT22;11402;51.374;6.594;2022-12-07T16:57:13;6.60;99.90
22471;DHT22;11402;51.374;6.594;2022-12-07T16:59:39;6.50;99.90
22471;DHT22;11402;51.374;6.594;2022-12-07T17:02:04;6.40;99.90
22471;DHT22;11402;51.374;6.594;2022-12-07T17:04:32;6.40;99.90
22471;DHT22;11402;51.374;6.594;2022-12-07T17:06:58;6.40;99.90
22471;DHT22;11402;51.374;6.594;2022-12-07T17:09:24;6.30;99.90
22471;DHT22;11402;51.374;6.594;2022-12-07T17:11:49;6.40;99.90
22471;DHT22;11402;51.374;6.594;2022-12-07T17:14:15;6.40;99.90
22471;DHT22;11402;51.374;6.594;2022-12-07T17:16:59;6.50;99.90
22471;DHT22;11402;51.374;6.594;2022-12-07T17:19:25;6.40;99.90